createdAt,value
2019-02-07T00:02:11.886Z,7.00
2019-02-07T00:04:41.984Z,7.10
2019-02-07T00:07:12.193Z,7.10
2019-02-07T00:09:42.104Z,7.10
2019-02-07T00:12:12.314Z,7.30
2019-02-07T00:14:42.524Z,7.40
2019-02-07T00:17:12.632Z,7.50
2019-02-07T00:19:42.644Z,7.60
2019-02-07T00:22:12.853Z,7.40
2019-02-07T00:24:43.324Z,7.30
2019-02-07T00:27:13.661Z,7.40
2019-02-07T00:29:43.868Z,7.50
2019-02-07T00:32:13.979Z,7.40
2019-02-07T00:35:21.151Z,7.30
2019-02-07T00:37:51.067Z,7.40
2019-02-07T00:40:22.356Z,7.30
2019-02-07T00:42:53.327Z,7.20
2019-02-07T00:45:23.262Z,7.20
2019-02-07T00:47:53.326Z,7.20
2019-02-07T00:50:23.384Z,7.30
2019-02-07T00:53:23.475Z,7.30
2019-02-07T00:55:53.688Z,7.20
2019-02-07T00:58:23.949Z,7.30
2019-02-07T01:00:54.003Z,7.40
2019-02-07T01:03:24.670Z,7.30
2019-02-07T01:05:54.812Z,7.40
2019-02-07T01:08:25.027Z,7.30
2019-02-07T01:10:55.523Z,7.30
2019-02-07T01:13:25.932Z,7.30
2019-02-07T01:15:55.842Z,7.30
2019-02-07T01:18:25.755Z,7.30
2019-02-07T01:20:55.673Z,7.30
2019-02-07T01:23:25.781Z,7.40
2019-02-07T01:25:55.691Z,7.50
2019-02-07T01:28:26.000Z,7.50
2019-02-07T01:30:56.011Z,7.60
2019-02-07T01:33:25.923Z,7.50
2019-02-07T01:35:55.840Z,7.30
2019-02-07T01:38:25.750Z,7.20
2019-02-07T01:40:56.155Z,7.10
2019-02-07T01:43:26.169Z,7.20
2019-02-07T01:45:56.379Z,7.20
2019-02-07T01:48:26.748Z,7.20
2019-02-07T01:50:56.792Z,7.20
2019-02-07T01:53:26.708Z,7.30
2019-02-07T01:55:56.621Z,7.20
2019-02-07T01:58:26.539Z,7.20
2019-02-07T02:00:57.551Z,7.20
2019-02-07T02:03:27.834Z,7.30
2019-02-07T02:05:57.749Z,7.20
2019-02-07T02:08:27.759Z,7.30
2019-02-07T02:10:57.967Z,7.20
2019-02-07T02:13:27.886Z,7.10
2019-02-07T02:15:57.990Z,7.10
2019-02-07T02:18:27.906Z,7.10
2019-02-07T02:20:58.212Z,7.20
2019-02-07T02:23:28.127Z,7.20
2019-02-07T02:25:58.335Z,7.20
2019-02-07T02:28:29.156Z,7.20
2019-02-07T02:30:59.240Z,7.30
2019-02-07T02:33:29.255Z,7.30
2019-02-07T02:35:59.552Z,7.30
2019-02-07T02:38:29.473Z,7.20
2019-02-07T02:41:00.177Z,7.20
2019-02-07T02:43:30.087Z,7.20
2019-02-07T02:46:00.001Z,7.20
2019-02-07T02:48:30.216Z,7.10
2019-02-07T02:51:00.322Z,7.10
2019-02-07T02:53:30.548Z,7.20
2019-02-07T02:56:00.540Z,7.30
2019-02-07T02:58:30.459Z,7.30
2019-02-07T03:01:21.207Z,7.30
2019-02-07T03:03:52.753Z,7.40
2019-02-07T03:06:24.770Z,7.40
2019-02-07T03:09:08.644Z,7.40
2019-02-07T03:11:40.333Z,7.30
2019-02-07T03:14:12.110Z,7.30
2019-02-07T03:16:46.935Z,7.20
2019-02-07T03:19:24.518Z,7.30
2019-02-07T03:21:55.892Z,7.30
2019-02-07T03:24:27.269Z,7.40
2019-02-07T03:26:58.639Z,7.40
2019-02-07T03:29:42.159Z,7.40
2019-02-07T03:32:22.789Z,7.40
2019-02-07T03:34:57.418Z,7.50
2019-02-07T03:37:41.713Z,7.40
2019-02-07T03:40:32.639Z,7.40
2019-02-07T03:43:20.637Z,7.50
2019-02-07T03:46:08.934Z,7.50
2019-02-07T03:48:49.270Z,7.40
2019-02-07T03:51:23.338Z,7.50
2019-02-07T03:54:07.186Z,7.50
2019-02-07T03:56:56.955Z,7.40
2019-02-07T03:59:44.661Z,7.30
2019-02-07T04:02:22.340Z,7.20
2019-02-07T04:05:03.881Z,7.20
2019-02-07T04:07:47.824Z,7.20
2019-02-07T04:10:19.286Z,7.30
2019-02-07T04:12:53.745Z,7.10
2019-02-07T04:15:41.452Z,7.10
2019-02-07T04:18:21.884Z,7.20
2019-02-07T04:21:10.278Z,7.10
2019-02-07T04:23:41.765Z,7.20
2019-02-07T04:26:29.383Z,7.20
2019-02-07T04:29:17.865Z,7.30
2019-02-07T04:31:58.299Z,7.30
2019-02-07T04:34:45.909Z,7.40
2019-02-07T04:37:20.243Z,7.40
2019-02-07T04:40:03.921Z,7.40
2019-02-07T04:42:44.550Z,7.30
2019-02-07T04:45:19.181Z,7.50
2019-02-07T04:47:56.663Z,7.40
2019-02-07T04:50:34.244Z,7.40
2019-02-07T04:53:06.422Z,7.20
2019-02-07T04:55:40.954Z,7.20
2019-02-07T04:58:28.855Z,7.10
2019-02-07T05:01:16.659Z,7.20
2019-02-07T05:04:06.628Z,7.20
2019-02-07T05:06:44.604Z,7.20
2019-02-07T05:09:31.326Z,7.20
2019-02-07T05:12:05.764Z,7.20
2019-02-07T05:14:37.132Z,7.20
2019-02-07T05:17:08.496Z,7.30
2019-02-07T05:19:58.114Z,7.40
2019-02-07T05:22:35.693Z,7.40
2019-02-07T05:25:10.142Z,7.10
2019-02-07T05:27:53.904Z,7.10
2019-02-07T05:30:31.288Z,7.00
2019-02-07T05:33:02.662Z,7.00
2019-02-07T05:35:52.349Z,6.90
2019-02-07T05:38:23.834Z,6.90
2019-02-07T05:40:58.375Z,7.00
2019-02-07T05:43:48.256Z,7.00
2019-02-07T05:46:25.326Z,7.10
2019-02-07T05:49:02.445Z,7.10
2019-02-07T05:51:46.488Z,7.00
2019-02-07T05:54:30.456Z,7.00
2019-02-07T05:57:07.941Z,7.10
2019-02-07T05:59:54.468Z,7.10
2019-02-07T06:02:28.807Z,7.20
2019-02-07T06:05:09.045Z,7.20
2019-02-07T06:07:49.873Z,7.10
2019-02-07T06:10:37.179Z,7.30
2019-02-07T06:13:20.561Z,7.50
2019-02-07T06:16:01.599Z,7.40
2019-02-07T06:18:32.950Z,7.50
2019-02-07T06:21:07.502Z,7.50
2019-02-07T06:23:42.045Z,7.40
2019-02-07T06:26:13.722Z,7.30
2019-02-07T06:28:45.207Z,7.30
2019-02-07T06:31:22.866Z,7.30
2019-02-07T06:34:09.721Z,7.30
2019-02-07T06:36:44.044Z,7.30
2019-02-07T06:39:28.253Z,7.30
2019-02-07T06:42:07.858Z,7.40
2019-02-07T06:44:48.093Z,7.40
2019-02-07T06:47:28.725Z,7.60
2019-02-07T06:50:03.747Z,7.60
2019-02-07T06:52:52.242Z,7.50
2019-02-07T06:55:26.872Z,7.60
2019-02-07T06:57:58.386Z,7.70
2019-02-07T07:00:44.886Z,7.70
2019-02-07T07:03:16.372Z,7.70
2019-02-07T07:05:51.793Z,7.80
2019-02-07T07:08:41.466Z,7.70
2019-02-07T07:11:15.704Z,7.80
2019-02-07T07:13:47.188Z,7.80
2019-02-07T07:16:25.167Z,7.80
2019-02-07T07:19:03.054Z,7.90
2019-02-07T07:21:41.212Z,7.80
2019-02-07T07:24:25.968Z,7.80
2019-02-07T07:27:13.771Z,7.80
2019-02-07T07:29:48.210Z,7.80
2019-02-07T07:32:22.460Z,7.90
2019-02-07T07:34:56.999Z,8.00
2019-02-07T07:37:39.202Z,7.90
2019-02-07T07:40:14.283Z,8.00
2019-02-07T07:42:51.492Z,8.00
2019-02-07T07:45:23.078Z,8.00
2019-02-07T07:48:00.860Z,8.00
2019-02-07T07:50:32.636Z,8.10
2019-02-07T07:53:16.510Z,8.10
2019-02-07T07:56:00.292Z,8.10
2019-02-07T07:58:38.063Z,8.20
2019-02-07T08:01:25.965Z,8.20
2019-02-07T08:03:57.453Z,8.30
2019-02-07T08:06:37.600Z,8.30
2019-02-07T08:09:15.715Z,8.40
2019-02-07T08:11:47.446Z,8.50
2019-02-07T08:14:25.025Z,8.50
2019-02-07T08:17:11.943Z,8.60
2019-02-07T08:19:49.819Z,8.50
2019-02-07T08:22:21.308Z,8.60
2019-02-07T08:24:58.986Z,8.60
2019-02-07T08:27:30.378Z,8.70
2019-02-07T08:30:08.447Z,8.80
2019-02-07T08:32:55.661Z,8.70
2019-02-07T08:35:36.192Z,8.70
2019-02-07T08:38:07.782Z,8.80
2019-02-07T08:40:42.018Z,8.80
2019-02-07T08:43:15.961Z,8.90
2019-02-07T08:46:05.337Z,8.90
2019-02-07T08:48:52.949Z,9.00
2019-02-07T08:51:39.570Z,9.00
2019-02-07T08:54:27.377Z,9.10
2019-02-07T08:57:01.911Z,9.00
2019-02-07T08:59:33.607Z,9.10
2019-02-07T09:02:23.363Z,9.10
2019-02-07T09:05:01.148Z,9.10
2019-02-07T09:07:47.964Z,9.10
2019-02-07T09:10:37.733Z,9.10
2019-02-07T09:13:21.409Z,9.10
2019-02-07T09:16:09.313Z,9.10
2019-02-07T09:18:52.791Z,9.10
2019-02-07T09:21:24.163Z,9.10
2019-02-07T09:24:05.595Z,9.10
2019-02-07T09:27:04.411Z,9.10
2019-02-07T09:29:45.137Z,9.20
2019-02-07T09:32:16.715Z,9.30
2019-02-07T09:34:48.698Z,9.20
2019-02-07T09:37:23.657Z,9.20
2019-02-07T09:40:13.300Z,9.30
2019-02-07T09:42:44.884Z,9.40
2019-02-07T09:45:28.755Z,9.50
2019-02-07T09:48:00.701Z,9.50
2019-02-07T09:50:35.366Z,9.60
2019-02-07T09:53:07.246Z,9.50
2019-02-07T09:55:54.951Z,9.60
2019-02-07T09:58:32.236Z,9.70
2019-02-07T10:01:22.106Z,9.80
2019-02-07T10:03:53.702Z,9.80
2019-02-07T10:06:28.618Z,9.80
2019-02-07T10:08:59.981Z,9.80
2019-02-07T10:11:46.630Z,9.70
2019-02-07T10:14:18.120Z,9.80
2019-02-07T10:17:04.840Z,9.80
2019-02-07T10:19:39.375Z,9.90
2019-02-07T10:22:10.866Z,9.90
2019-02-07T10:24:51.323Z,10.00
2019-02-07T10:27:35.120Z,10.00
2019-02-07T10:30:09.700Z,10.10
2019-02-07T10:32:41.186Z,9.90
2019-02-07T10:35:28.597Z,10.00
2019-02-07T10:38:05.885Z,10.10
2019-02-07T10:40:53.787Z,10.10
2019-02-07T10:43:34.514Z,10.10
2019-02-07T10:46:12.391Z,10.10
2019-02-07T10:48:44.733Z,10.10
2019-02-07T10:51:28.537Z,10.20
2019-02-07T10:54:15.458Z,10.30
2019-02-07T10:57:03.412Z,10.50
2019-02-07T10:59:47.231Z,10.60
2019-02-07T11:02:34.544Z,10.70
2019-02-07T11:05:21.270Z,10.80
2019-02-07T11:07:59.144Z,10.80
2019-02-07T11:10:39.587Z,10.90
2019-02-07T11:13:20.212Z,10.90
2019-02-07T11:16:07.812Z,11.00
2019-02-07T11:18:55.888Z,11.00
2019-02-07T11:21:30.152Z,11.00
2019-02-07T11:24:01.532Z,10.90
2019-02-07T11:26:49.541Z,10.90
2019-02-07T11:29:31.741Z,10.90
2019-02-07T11:32:03.786Z,10.90
2019-02-07T11:34:38.077Z,10.90
2019-02-07T11:37:12.514Z,11.00
2019-02-07T11:39:47.222Z,11.10
2019-02-07T11:42:34.931Z,11.10
2019-02-07T11:45:26.473Z,11.20
2019-02-07T11:48:00.709Z,11.20
2019-02-07T11:50:41.239Z,11.30
2019-02-07T11:53:12.628Z,11.40
2019-02-07T11:55:59.350Z,11.50
2019-02-07T11:58:33.880Z,11.50
2019-02-07T12:01:06.256Z,11.60
2019-02-07T12:03:50.030Z,11.60
2019-02-07T12:06:34.000Z,11.60
2019-02-07T12:09:23.379Z,11.70
2019-02-07T12:11:59.387Z,11.70
2019-02-07T12:14:31.039Z,11.90
2019-02-07T12:17:02.557Z,11.90
2019-02-07T12:19:49.081Z,12.00
2019-02-07T12:22:23.714Z,12.10
2019-02-07T12:24:55.594Z,12.20
2019-02-07T12:27:43.203Z,12.20
2019-02-07T12:30:19.334Z,12.30
2019-02-07T12:32:50.891Z,12.30
2019-02-07T12:35:34.961Z,12.80
2019-02-07T12:38:09.986Z,12.80
2019-02-07T12:40:54.054Z,12.90
2019-02-07T12:43:34.586Z,12.80
2019-02-07T12:46:06.877Z,12.80
2019-02-07T12:48:47.439Z,12.80
2019-02-07T12:51:21.920Z,12.70
2019-02-07T12:53:53.997Z,12.60
2019-02-07T12:56:28.251Z,12.70
2019-02-07T12:59:11.815Z,12.70
2019-02-07T13:01:49.313Z,12.70
2019-02-07T13:04:26.977Z,12.50
2019-02-07T13:07:06.755Z,12.50
2019-02-07T13:09:53.681Z,12.60
2019-02-07T13:12:31.816Z,12.70
2019-02-07T13:15:08.881Z,12.70
2019-02-07T13:17:55.544Z,12.80
2019-02-07T13:20:27.229Z,12.90
2019-02-07T13:23:05.007Z,13.20
2019-02-07T13:25:42.567Z,13.30
2019-02-07T13:28:17.905Z,13.20
2019-02-07T13:30:49.400Z,13.20
2019-02-07T13:33:23.713Z,13.20
2019-02-07T13:36:05.713Z,13.10
2019-02-07T13:38:50.085Z,13.10
2019-02-07T13:41:37.785Z,13.20
2019-02-07T13:44:12.324Z,13.60
2019-02-07T13:47:02.188Z,13.30
2019-02-07T13:49:52.125Z,13.10
2019-02-07T13:52:19.415Z,13.10
2019-02-07T13:55:06.207Z,12.90
2019-02-07T13:57:56.794Z,12.80
2019-02-07T14:00:37.620Z,12.90
2019-02-07T14:03:09.695Z,13.00
2019-02-07T14:05:50.127Z,13.00
2019-02-07T14:08:38.779Z,13.00
2019-02-07T14:11:10.695Z,12.90
2019-02-07T14:13:42.063Z,12.90
2019-02-07T14:16:22.811Z,12.90
2019-02-07T14:18:57.541Z,12.80
2019-02-07T14:21:41.132Z,12.80
2019-02-07T14:24:15.751Z,12.70
2019-02-07T14:27:03.949Z,12.60
2019-02-07T14:29:35.319Z,12.60
2019-02-07T14:32:22.453Z,12.60
2019-02-07T14:35:09.088Z,12.60
2019-02-07T14:37:40.630Z,12.50
2019-02-07T14:40:30.631Z,12.50
2019-02-07T14:43:02.215Z,12.30
2019-02-07T14:45:45.792Z,12.00
2019-02-07T14:48:25.734Z,11.80
2019-02-07T14:50:56.536Z,11.80
2019-02-07T14:53:27.403Z,11.80
2019-02-07T14:55:57.545Z,11.90
2019-02-07T14:58:28.238Z,12.00
2019-02-07T15:00:58.646Z,11.90
2019-02-07T15:03:28.852Z,11.80
2019-02-07T15:05:58.960Z,11.80
2019-02-07T15:08:29.168Z,11.80
2019-02-07T15:10:59.082Z,11.70
2019-02-07T15:13:29.098Z,11.70
2019-02-07T15:15:59.205Z,11.60
2019-02-07T15:18:29.116Z,11.30
2019-02-07T15:20:59.034Z,11.00
2019-02-07T15:23:29.139Z,10.80
2019-02-07T15:25:59.203Z,10.60
2019-02-07T15:28:29.360Z,10.50
2019-02-07T15:30:59.372Z,10.40
2019-02-07T15:33:29.482Z,10.30
2019-02-07T15:35:59.689Z,10.20
2019-02-07T15:38:29.897Z,10.20
2019-02-07T15:41:00.010Z,10.30
2019-02-07T15:43:30.806Z,10.30
2019-02-07T15:46:01.506Z,10.40
2019-02-07T15:48:31.419Z,10.40
2019-02-07T15:51:01.336Z,10.40
2019-02-07T15:53:31.710Z,10.40
2019-02-07T15:56:01.651Z,10.50
2019-02-07T15:58:33.018Z,10.50
2019-02-07T16:01:10.655Z,10.50
2019-02-07T16:03:41.985Z,10.50
2019-02-07T16:06:12.019Z,10.60
2019-02-07T16:08:42.986Z,10.60
2019-02-07T16:11:12.927Z,10.60
2019-02-07T16:13:43.553Z,10.60
2019-02-07T16:16:13.640Z,10.70
2019-02-07T16:18:43.553Z,10.70
2019-02-07T16:21:13.467Z,10.80
2019-02-07T16:23:43.577Z,10.80
2019-02-07T16:26:14.080Z,10.80
2019-02-07T16:28:44.194Z,10.80
2019-02-07T16:31:14.705Z,10.80
2019-02-07T16:33:45.590Z,10.80
2019-02-07T16:36:16.489Z,10.70
2019-02-07T16:38:46.694Z,10.60
2019-02-07T16:41:16.999Z,10.60
2019-02-07T16:43:47.207Z,10.60
2019-02-07T16:46:18.007Z,10.50
2019-02-07T16:48:48.609Z,10.50
2019-02-07T16:51:18.914Z,10.40
2019-02-07T16:53:49.222Z,10.30
2019-02-07T16:56:19.136Z,10.20
2019-02-07T16:58:49.048Z,10.10
2019-02-07T17:01:18.961Z,10.10
2019-02-07T17:03:49.561Z,10.10
2019-02-07T17:06:19.868Z,10.00
2019-02-07T17:08:49.782Z,10.00
2019-02-07T17:11:19.991Z,9.90
2019-02-07T17:13:49.902Z,9.80
2019-02-07T17:16:20.700Z,9.80
2019-02-07T17:18:51.203Z,9.80
2019-02-07T17:21:22.201Z,9.70
2019-02-07T17:23:52.212Z,9.70
2019-02-07T17:26:22.123Z,9.70
2019-02-07T17:28:52.041Z,9.60
2019-02-07T17:31:22.051Z,9.60
2019-02-07T17:33:52.159Z,9.60
2019-02-07T17:36:22.565Z,9.60
2019-02-07T17:38:52.478Z,9.60
2019-02-07T17:41:22.395Z,9.50
2019-02-07T17:43:52.959Z,9.50
2019-02-07T17:46:22.906Z,9.50
2019-02-07T17:48:53.015Z,9.50
2019-02-07T17:51:23.595Z,9.50
2019-02-07T17:53:53.757Z,9.40
2019-02-07T17:56:23.739Z,9.40
2019-02-07T17:58:53.653Z,9.40
2019-02-07T18:01:23.566Z,9.40
2019-02-07T18:03:54.067Z,9.40
2019-02-07T18:06:23.983Z,9.30
2019-02-07T18:08:53.785Z,9.30
2019-02-07T18:11:23.713Z,9.30
2019-02-07T18:13:53.926Z,9.30
2019-02-07T18:16:24.027Z,9.20
2019-02-07T18:18:54.629Z,9.20
2019-02-07T18:21:34.015Z,9.10
2019-02-07T18:23:56.228Z,9.10
2019-02-07T18:26:26.235Z,9.00
2019-02-07T18:28:56.643Z,9.00
2019-02-07T18:31:26.856Z,8.90
2019-02-07T18:33:57.060Z,8.90
2019-02-07T18:36:27.174Z,8.90
2019-02-07T18:38:57.279Z,8.90
2019-02-07T18:41:27.194Z,8.80
2019-02-07T18:43:57.206Z,8.80
2019-02-07T18:46:28.252Z,8.80
2019-02-07T18:48:58.412Z,8.70
2019-02-07T18:51:29.033Z,8.70
2019-02-07T18:53:59.319Z,8.70
2019-02-07T18:56:29.233Z,8.70
2019-02-07T18:58:59.340Z,8.60
2019-02-07T19:01:29.552Z,8.60
2019-02-07T19:03:59.460Z,8.70
2019-02-07T19:06:29.394Z,8.70
2019-02-07T19:08:59.505Z,8.70
2019-02-07T19:11:29.891Z,8.70
2019-02-07T19:13:59.805Z,8.60
2019-02-07T19:16:30.110Z,8.60
2019-02-07T19:19:00.124Z,8.50
2019-02-07T19:21:30.035Z,8.50
2019-02-07T19:24:00.573Z,8.40
2019-02-07T19:26:30.549Z,8.40
2019-02-07T19:29:00.758Z,8.40
2019-02-07T19:31:30.772Z,8.30
2019-02-07T19:34:00.682Z,8.40
2019-02-07T19:36:30.793Z,8.40
2019-02-07T19:39:00.708Z,8.40
2019-02-07T19:41:30.623Z,8.40
2019-02-07T19:44:00.532Z,8.40
2019-02-07T19:46:30.450Z,8.50
2019-02-07T19:49:00.362Z,8.50
2019-02-07T19:51:30.278Z,8.60
2019-02-07T19:54:00.383Z,8.70
2019-02-07T19:56:30.298Z,8.50
2019-02-07T19:59:00.210Z,8.50
2019-02-07T20:01:30.124Z,8.50
2019-02-07T20:04:00.135Z,8.40
2019-02-07T20:06:30.050Z,8.30
2019-02-07T20:09:00.257Z,8.30
2019-02-07T20:11:30.174Z,8.20
2019-02-07T20:14:00.183Z,8.20
2019-02-07T20:16:30.096Z,8.20
2019-02-07T20:19:00.011Z,8.20
2019-02-07T20:21:30.217Z,8.10
2019-02-07T20:24:00.283Z,8.10
2019-02-07T20:26:30.475Z,8.20
2019-02-07T20:29:00.744Z,8.20
2019-02-07T20:31:31.052Z,8.10
2019-02-07T20:34:00.978Z,8.00
2019-02-07T20:36:30.877Z,7.90
2019-02-07T20:39:00.893Z,7.80
2019-02-07T20:41:30.803Z,7.80
2019-02-07T20:44:00.717Z,7.80
2019-02-07T20:46:31.191Z,7.60
2019-02-07T20:49:01.136Z,7.50
2019-02-07T20:51:31.048Z,7.60
2019-02-07T20:54:00.961Z,7.50
2019-02-07T20:56:30.971Z,7.50
2019-02-07T20:59:01.186Z,7.50
2019-02-07T21:01:31.097Z,7.60
2019-02-07T21:04:02.090Z,7.50
2019-02-07T21:06:32.391Z,7.50
2019-02-07T21:09:02.310Z,7.50
2019-02-07T21:11:32.222Z,7.60
2019-02-07T21:14:02.187Z,7.70
2019-02-07T21:16:32.442Z,7.60
2019-02-07T21:19:02.356Z,7.40
2019-02-07T21:21:32.760Z,7.50
2019-02-07T21:24:02.781Z,7.50
2019-02-07T21:26:32.685Z,7.50
2019-02-07T21:29:03.035Z,7.30
2019-02-07T21:31:33.005Z,7.30
2019-02-07T21:34:03.498Z,7.20
2019-02-07T21:36:33.424Z,7.30
2019-02-07T21:39:03.337Z,7.30
2019-02-07T21:41:33.247Z,7.30
2019-02-07T21:44:03.456Z,7.30
2019-02-07T21:46:33.859Z,7.20
2019-02-07T21:49:04.365Z,7.20
2019-02-07T21:51:34.951Z,7.20
2019-02-07T21:54:05.943Z,7.20
2019-02-07T21:56:36.936Z,7.10
2019-02-07T21:59:07.360Z,7.10
2019-02-07T22:01:37.271Z,7.10
2019-02-07T22:04:07.581Z,7.10
2019-02-07T22:06:37.494Z,7.00
2019-02-07T22:09:11.933Z,6.90
2019-02-07T22:11:41.841Z,6.80
2019-02-07T22:14:11.756Z,6.60
2019-02-07T22:16:42.359Z,6.50
2019-02-07T22:19:13.391Z,6.50
2019-02-07T22:21:43.681Z,6.40
2019-02-07T22:24:14.759Z,6.70
2019-02-07T22:26:45.651Z,6.70
2019-02-07T22:29:16.152Z,6.60
2019-02-07T22:31:46.903Z,6.50
2019-02-07T22:34:17.579Z,6.50
2019-02-07T22:36:48.154Z,6.40
2019-02-07T22:39:18.068Z,6.60
2019-02-07T22:41:48.372Z,6.70
2019-02-07T22:44:18.580Z,6.70
2019-02-07T22:46:48.493Z,6.80
2019-02-07T22:49:18.407Z,6.80
2019-02-07T22:51:49.560Z,6.70
2019-02-07T22:54:20.685Z,6.70
2019-02-07T22:56:51.194Z,6.60
2019-02-07T22:59:21.894Z,6.60
2019-02-07T23:01:53.974Z,6.70
2019-02-07T23:04:23.882Z,6.80
2019-02-07T23:06:54.387Z,6.60
2019-02-07T23:09:25.383Z,6.50
2019-02-07T23:11:56.279Z,6.50
2019-02-07T23:14:26.487Z,6.40
2019-02-07T23:16:56.497Z,6.40
2019-02-07T23:19:26.814Z,6.30
2019-02-07T23:21:57.740Z,6.30
2019-02-07T23:24:28.682Z,6.40
2019-02-07T23:26:58.610Z,6.40
2019-02-07T23:29:28.818Z,6.20
2019-02-07T23:31:58.730Z,6.20
2019-02-07T23:34:28.642Z,6.20
2019-02-07T23:36:58.557Z,6.30
2019-02-07T23:39:29.059Z,6.20
2019-02-07T23:41:58.853Z,6.40
2019-02-07T23:44:28.787Z,6.40
2019-02-07T23:46:58.990Z,6.50
2019-02-07T23:49:29.111Z,6.30
2019-02-07T23:51:58.917Z,6.00
2019-02-07T23:54:29.720Z,6.00
2019-02-07T23:56:59.669Z,6.00
2019-02-07T23:59:29.939Z,6.10
